createdAt,value
2018-03-20T00:01:03.789Z,32.50
2018-03-20T00:03:31.288Z,39.72
2018-03-20T00:05:58.735Z,37.38
2018-03-20T00:08:26.432Z,33.17
2018-03-20T00:10:53.944Z,30.75
2018-03-20T00:13:21.444Z,35.67
2018-03-20T00:15:48.956Z,32.53
2018-03-20T00:18:16.503Z,41.50
2018-03-20T00:20:44.057Z,33.50
2018-03-20T00:23:11.584Z,33.88
2018-03-20T00:25:39.099Z,35.45
2018-03-20T00:28:06.571Z,32.95
2018-03-20T00:30:34.063Z,33.03
2018-03-20T00:33:01.546Z,37.33
2018-03-20T00:35:29.128Z,32.20
2018-03-20T00:37:56.598Z,30.10
2018-03-20T00:40:24.513Z,34.13
2018-03-20T00:42:51.992Z,35.50
2018-03-20T00:45:20.272Z,37.58
2018-03-20T00:47:47.749Z,38.08
2018-03-20T00:50:15.414Z,31.87
2018-03-20T00:52:42.926Z,35.20
2018-03-20T00:55:10.451Z,33.58
2018-03-20T00:57:37.909Z,35.85
2018-03-20T01:00:05.383Z,34.50
2018-03-20T01:02:32.946Z,31.80
2018-03-20T01:05:00.446Z,36.70
2018-03-20T01:07:27.921Z,35.65
2018-03-20T01:09:55.393Z,29.67
2018-03-20T01:12:22.880Z,36.70
2018-03-20T01:14:50.380Z,31.23
2018-03-20T01:17:17.864Z,29.70
2018-03-20T01:19:45.338Z,31.10
2018-03-20T01:22:12.896Z,31.17
2018-03-20T01:24:40.361Z,29.20
2018-03-20T01:27:07.836Z,29.55
2018-03-20T01:29:35.303Z,34.42
2018-03-20T01:32:02.780Z,28.25
2018-03-20T01:34:30.418Z,31.55
2018-03-20T01:36:57.909Z,29.45
2018-03-20T01:39:25.407Z,32.63
2018-03-20T01:41:52.892Z,29.25
2018-03-20T01:44:20.400Z,34.50
2018-03-20T01:46:48.265Z,30.42
2018-03-20T01:49:15.907Z,33.90
2018-03-20T01:51:43.411Z,29.48
2018-03-20T01:54:10.875Z,29.30
2018-03-20T01:56:38.356Z,25.92
2018-03-20T01:59:05.849Z,32.55
2018-03-20T02:01:33.300Z,31.20
2018-03-20T02:04:00.778Z,35.45
2018-03-20T02:06:28.336Z,32.33
2018-03-20T02:08:55.819Z,30.55
2018-03-20T02:11:23.309Z,32.05
2018-03-20T02:13:50.791Z,36.33
2018-03-20T02:16:18.258Z,28.30
2018-03-20T02:18:46.649Z,29.80
2018-03-20T02:21:14.338Z,32.85
2018-03-20T02:23:41.828Z,32.03
2018-03-20T02:26:09.324Z,35.22
2018-03-20T02:28:36.920Z,36.65
2018-03-20T02:31:04.463Z,29.95
2018-03-20T02:33:31.951Z,31.65
2018-03-20T02:35:59.429Z,29.25
2018-03-20T02:38:26.917Z,30.92
2018-03-20T02:40:54.400Z,30.80
2018-03-20T02:43:21.887Z,30.80
2018-03-20T02:45:49.354Z,29.98
2018-03-20T02:48:16.836Z,34.75
2018-03-20T02:50:44.310Z,33.58
2018-03-20T02:53:11.774Z,29.40
2018-03-20T02:55:39.321Z,35.42
2018-03-20T02:58:06.828Z,26.80
2018-03-20T03:00:34.290Z,29.95
2018-03-20T03:03:01.824Z,33.33
2018-03-20T03:05:29.386Z,38.05
2018-03-20T03:07:56.943Z,33.30
2018-03-20T03:10:24.428Z,33.33
2018-03-20T03:12:51.891Z,35.50
2018-03-20T03:15:19.438Z,32.75
2018-03-20T03:17:46.947Z,32.50
2018-03-20T03:20:14.501Z,31.00
2018-03-20T03:22:41.965Z,30.33
2018-03-20T03:25:09.565Z,38.35
2018-03-20T03:27:37.019Z,33.53
2018-03-20T03:30:04.480Z,33.95
2018-03-20T03:32:32.009Z,37.58
2018-03-20T03:34:59.475Z,37.25
2018-03-20T03:37:27.042Z,42.65
2018-03-20T03:39:54.502Z,37.70
2018-03-20T03:42:22.001Z,36.42
2018-03-20T03:44:49.484Z,41.78
2018-03-20T03:47:16.971Z,37.75
2018-03-20T03:49:44.442Z,40.10
2018-03-20T03:52:12.000Z,39.90
2018-03-20T03:54:39.473Z,39.45
2018-03-20T03:57:06.990Z,43.40
2018-03-20T03:59:34.484Z,39.92
2018-03-20T04:02:01.954Z,46.72
2018-03-20T04:04:29.806Z,40.47
2018-03-20T04:06:57.305Z,41.00
2018-03-20T04:09:24.775Z,45.03
2018-03-20T04:11:52.267Z,44.65
2018-03-20T04:14:19.747Z,38.92
2018-03-20T04:16:47.256Z,40.90
2018-03-20T04:19:14.739Z,37.60
2018-03-20T04:21:42.220Z,43.17
2018-03-20T04:24:09.702Z,40.55
2018-03-20T04:26:37.169Z,40.63
2018-03-20T04:29:04.688Z,45.38
2018-03-20T04:31:32.168Z,40.60
2018-03-20T04:33:59.644Z,41.53
2018-03-20T04:36:27.291Z,43.10
2018-03-20T04:38:54.762Z,41.25
2018-03-20T04:41:22.283Z,37.05
2018-03-20T04:43:49.769Z,40.12
2018-03-20T04:46:17.253Z,37.88
2018-03-20T04:48:45.004Z,44.03
2018-03-20T04:51:12.479Z,45.63
2018-03-20T04:53:39.953Z,43.50
2018-03-20T04:56:07.433Z,43.72
2018-03-20T04:58:34.890Z,42.65
2018-03-20T05:01:02.380Z,48.45
2018-03-20T05:03:29.844Z,50.03
2018-03-20T05:05:57.327Z,42.33
2018-03-20T05:08:24.808Z,41.85
2018-03-20T05:10:52.288Z,43.00
2018-03-20T05:13:19.754Z,43.40
2018-03-20T05:15:47.240Z,40.65
2018-03-20T05:18:14.745Z,38.80
2018-03-20T05:20:47.836Z,40.33
2018-03-20T05:23:15.313Z,42.80
2018-03-20T05:25:42.797Z,46.60
2018-03-20T05:28:10.286Z,43.70
2018-03-20T05:30:37.762Z,47.85
2018-03-20T05:33:05.228Z,41.85
2018-03-20T05:35:32.705Z,46.15
2018-03-20T05:38:00.167Z,54.05
2018-03-20T05:40:27.627Z,43.60
2018-03-20T05:42:55.153Z,42.53
2018-03-20T05:45:22.633Z,42.03
2018-03-20T05:50:55.637Z,46.28
2018-03-20T05:53:23.135Z,52.83
2018-03-20T05:55:50.592Z,45.35
2018-03-20T05:58:18.133Z,45.00
2018-03-20T06:00:45.939Z,46.85
2018-03-20T06:03:13.538Z,49.08
2018-03-20T06:05:41.098Z,65.82
2018-03-20T06:08:08.601Z,45.78
2018-03-20T06:10:36.079Z,49.50
2018-03-20T06:13:03.532Z,50.65
2018-03-20T06:15:31.055Z,48.40
2018-03-20T06:17:58.505Z,45.53
2018-03-20T06:20:25.975Z,39.58
2018-03-20T06:22:53.477Z,48.85
2018-03-20T06:25:20.932Z,47.42
2018-03-20T06:27:48.403Z,44.13
2018-03-20T06:30:15.888Z,44.05
2018-03-20T06:32:43.478Z,42.42
2018-03-20T06:35:10.984Z,50.08
2018-03-20T06:37:38.435Z,50.58
2018-03-20T06:40:05.901Z,45.85
2018-03-20T06:42:33.384Z,47.58
2018-03-20T06:45:00.843Z,46.80
2018-03-20T06:47:28.308Z,43.22
2018-03-20T06:49:55.778Z,47.10
2018-03-20T06:52:23.271Z,56.85
2018-03-20T06:54:50.729Z,53.05
2018-03-20T06:57:18.206Z,43.60
2018-03-20T06:59:45.659Z,56.60
2018-03-20T07:02:13.282Z,46.08
2018-03-20T07:04:40.807Z,54.08
2018-03-20T07:07:08.256Z,47.17
2018-03-20T07:09:35.724Z,53.78
2018-03-20T07:12:03.239Z,47.95
2018-03-20T07:14:30.831Z,52.20
2018-03-20T07:16:58.351Z,50.45
2018-03-20T07:19:25.825Z,48.75
2018-03-20T07:21:53.291Z,43.70
2018-03-20T07:24:20.810Z,46.67
2018-03-20T07:26:48.295Z,53.13
2018-03-20T07:29:15.797Z,70.35
2018-03-20T07:31:43.279Z,47.78
2018-03-20T07:34:10.754Z,47.88
2018-03-20T07:36:38.219Z,52.83
2018-03-20T07:39:05.679Z,60.20
2018-03-20T07:41:33.189Z,47.88
2018-03-20T07:44:00.675Z,46.47
2018-03-20T07:46:28.123Z,43.90
2018-03-20T07:48:55.587Z,41.70
2018-03-20T07:51:23.076Z,47.38
2018-03-20T07:53:50.558Z,49.85
2018-03-20T07:56:18.019Z,53.75
2018-03-20T07:58:45.501Z,42.70
2018-03-20T08:01:12.959Z,45.30
2018-03-20T08:03:40.439Z,48.58
2018-03-20T08:06:07.910Z,45.30
2018-03-20T08:08:35.367Z,38.95
2018-03-20T08:11:02.855Z,48.35
2018-03-20T08:13:30.354Z,46.40
2018-03-20T08:15:57.852Z,46.33
2018-03-20T08:18:25.383Z,38.42
2018-03-20T08:20:52.847Z,38.60
2018-03-20T08:23:20.323Z,40.83
2018-03-20T08:25:47.797Z,42.58
2018-03-20T08:28:15.558Z,39.85
2018-03-20T08:30:43.132Z,36.55
2018-03-20T08:33:10.704Z,38.58
2018-03-20T08:35:38.184Z,42.05
2018-03-20T08:38:05.679Z,48.38
2018-03-20T08:40:33.474Z,42.17
2018-03-20T08:43:00.939Z,43.80
2018-03-20T08:45:28.407Z,39.20
2018-03-20T08:47:55.871Z,52.72
2018-03-20T08:50:23.348Z,48.55
2018-03-20T08:52:50.842Z,43.97
2018-03-20T08:55:18.332Z,50.80
2018-03-20T08:57:45.805Z,47.72
2018-03-20T09:00:13.303Z,48.50
2018-03-20T09:02:40.800Z,41.72
2018-03-20T09:05:08.270Z,39.25
2018-03-20T09:07:35.761Z,38.72
2018-03-20T09:10:03.280Z,44.78
2018-03-20T09:12:30.944Z,44.65
2018-03-20T09:14:58.412Z,61.08
2018-03-20T09:17:25.856Z,42.50
2018-03-20T09:19:53.451Z,39.40
2018-03-20T09:22:20.901Z,48.42
2018-03-20T09:24:51.304Z,40.60
2018-03-20T09:27:18.785Z,46.67
2018-03-20T09:29:46.259Z,42.20
2018-03-20T09:32:13.999Z,42.28
2018-03-20T09:34:41.463Z,39.10
2018-03-20T09:37:08.945Z,39.90
2018-03-20T09:39:36.481Z,47.90
2018-03-20T09:42:03.966Z,38.08
2018-03-20T09:44:31.985Z,41.97
2018-03-20T09:46:59.436Z,42.17
2018-03-20T09:49:26.922Z,44.92
2018-03-20T09:51:54.639Z,50.33
2018-03-20T09:54:22.123Z,48.00
2018-03-20T09:56:51.388Z,63.13
2018-03-20T09:59:19.155Z,44.17
2018-03-20T10:01:51.695Z,43.70
2018-03-20T10:04:19.171Z,43.47
2018-03-20T10:06:46.650Z,43.90
2018-03-20T10:09:14.134Z,36.55
2018-03-20T10:11:41.608Z,48.42
2018-03-20T10:14:09.107Z,42.35
2018-03-20T10:16:36.592Z,47.40
2018-03-20T10:19:04.110Z,39.75
2018-03-20T10:21:31.597Z,56.20
2018-03-20T10:23:59.115Z,46.03
2018-03-20T10:26:26.601Z,40.75
2018-03-20T10:28:54.056Z,44.97
2018-03-20T10:31:21.514Z,41.60
2018-03-20T10:33:49.048Z,43.55
2018-03-20T10:36:16.539Z,40.35
2018-03-20T10:38:44.190Z,39.28
2018-03-20T10:41:11.690Z,30.58
2018-03-20T10:43:39.177Z,36.33
2018-03-20T10:46:06.686Z,34.08
2018-03-20T10:48:34.767Z,40.15
2018-03-20T10:51:02.260Z,40.63
2018-03-20T10:53:29.773Z,43.28
2018-03-20T10:55:58.671Z,36.60
2018-03-20T10:58:26.173Z,35.65
2018-03-20T11:00:59.307Z,34.90
2018-03-20T11:03:26.822Z,35.20
2018-03-20T11:05:54.372Z,34.72
2018-03-20T11:08:23.253Z,31.93
2018-03-20T11:10:50.719Z,37.53
2018-03-20T11:13:18.176Z,30.73
2018-03-20T11:15:46.343Z,46.00
2018-03-20T11:18:15.299Z,35.23
2018-03-20T11:20:42.804Z,35.23
2018-03-20T11:23:10.280Z,41.65
2018-03-20T11:25:37.870Z,32.80
2018-03-20T11:28:05.367Z,34.23
2018-03-20T11:30:32.824Z,37.03
2018-03-20T11:33:00.293Z,27.47
2018-03-20T11:35:27.778Z,25.07
2018-03-20T11:37:55.244Z,32.57
2018-03-20T11:40:22.872Z,24.30
2018-03-20T11:42:50.357Z,23.48
2018-03-20T11:45:18.379Z,22.00
2018-03-20T11:47:45.881Z,20.00
2018-03-20T11:50:13.436Z,19.83
2018-03-20T11:52:40.916Z,28.63
2018-03-20T11:55:09.045Z,20.30
2018-03-20T11:57:36.531Z,26.40
2018-03-20T12:00:04.088Z,20.17
2018-03-20T12:02:32.085Z,22.70
2018-03-20T12:04:59.610Z,24.33
2018-03-20T12:07:27.143Z,24.70
2018-03-20T12:09:56.689Z,23.65
2018-03-20T12:12:24.953Z,29.00
2018-03-20T12:14:52.436Z,36.93
2018-03-20T12:17:19.935Z,23.33
2018-03-20T12:19:47.402Z,21.93
2018-03-20T12:22:15.237Z,25.67
2018-03-20T12:24:42.803Z,24.37
2018-03-20T12:27:10.283Z,27.27
2018-03-20T12:29:37.772Z,23.60
2018-03-20T12:32:05.235Z,22.50
2018-03-20T12:34:32.768Z,29.50
2018-03-20T12:37:00.230Z,22.80
2018-03-20T12:39:27.746Z,21.90
2018-03-20T12:41:55.225Z,21.55
2018-03-20T12:44:22.747Z,36.20
2018-03-20T12:46:50.341Z,20.43
2018-03-20T12:49:17.893Z,26.40
2018-03-20T12:51:45.418Z,21.40
2018-03-20T12:54:12.910Z,21.53
2018-03-20T12:56:40.865Z,23.77
2018-03-20T12:59:09.225Z,22.80
2018-03-20T13:01:36.760Z,20.73
2018-03-20T13:04:04.287Z,22.10
2018-03-20T13:06:31.789Z,22.20
2018-03-20T13:08:59.289Z,23.60
2018-03-20T13:11:26.816Z,20.20
2018-03-20T13:13:54.365Z,19.77
2018-03-20T13:16:21.828Z,18.33
2018-03-20T13:18:49.322Z,18.73
2018-03-20T13:21:17.721Z,19.43
2018-03-20T13:23:45.172Z,21.23
2018-03-20T13:26:12.655Z,21.70
2018-03-20T13:28:40.160Z,25.73
2018-03-20T13:31:07.622Z,20.20
2018-03-20T13:33:35.873Z,18.10
2018-03-20T13:36:05.440Z,29.40
2018-03-20T13:38:32.936Z,24.00
2018-03-20T13:41:01.804Z,23.17
2018-03-20T13:43:29.262Z,17.47
2018-03-20T13:45:56.739Z,15.05
2018-03-20T13:48:27.609Z,18.70
2018-03-20T13:50:58.678Z,17.53
2018-03-20T13:53:27.897Z,16.45
2018-03-20T13:55:55.358Z,19.00
2018-03-20T13:58:22.825Z,19.40
2018-03-20T14:00:50.305Z,18.30
2018-03-20T14:03:17.764Z,39.10
2018-03-20T14:05:45.226Z,18.60
2018-03-20T14:08:12.751Z,24.33
2018-03-20T14:10:40.214Z,21.93
2018-03-20T14:13:07.719Z,18.10
2018-03-20T14:15:35.204Z,18.93
2018-03-20T14:18:02.711Z,15.87
2018-03-20T14:20:38.549Z,15.87
2018-03-20T14:23:06.028Z,21.20
2018-03-20T14:25:33.598Z,20.30
2018-03-20T14:28:01.094Z,19.83
2018-03-20T14:30:28.569Z,20.30
2018-03-20T14:32:56.074Z,16.33
2018-03-20T14:35:23.581Z,14.30
2018-03-20T14:37:51.044Z,16.33
2018-03-20T14:40:18.668Z,17.47
2018-03-20T14:42:46.653Z,13.67
2018-03-20T14:45:14.546Z,17.23
2018-03-20T14:47:42.005Z,26.50
2018-03-20T14:50:09.483Z,14.70
2018-03-20T14:52:36.959Z,22.13
2018-03-20T14:55:04.459Z,14.00
2018-03-20T14:57:31.930Z,14.77
2018-03-20T14:59:59.416Z,17.40
2018-03-20T15:02:26.893Z,21.10
2018-03-20T15:04:55.443Z,15.68
2018-03-20T15:07:23.925Z,16.93
2018-03-20T15:09:51.442Z,19.08
2018-03-20T15:12:18.916Z,17.97
2018-03-20T15:14:46.903Z,16.70
2018-03-20T15:17:18.959Z,20.33
2018-03-20T15:19:46.492Z,16.40
2018-03-20T15:22:14.829Z,19.73
2018-03-20T15:24:42.299Z,13.33
2018-03-20T15:27:09.792Z,19.02
2018-03-20T15:29:37.299Z,15.23
2018-03-20T15:32:04.762Z,10.88
2018-03-20T15:34:32.247Z,14.47
2018-03-20T15:37:02.843Z,19.03
2018-03-20T15:39:30.303Z,11.02
2018-03-20T15:41:57.788Z,9.37
2018-03-20T15:44:25.361Z,13.10
2018-03-20T15:46:52.859Z,15.73
2018-03-20T15:49:20.332Z,20.60
2018-03-20T15:51:48.686Z,14.60
2018-03-20T15:54:16.196Z,17.63
2018-03-20T15:56:43.686Z,10.90
2018-03-20T15:59:11.176Z,13.27
2018-03-20T16:01:38.648Z,12.63
2018-03-20T16:04:06.121Z,11.67
2018-03-20T16:06:33.579Z,15.50
2018-03-20T16:09:01.069Z,15.00
2018-03-20T16:11:28.543Z,12.00
2018-03-20T16:13:56.025Z,9.70
2018-03-20T16:16:23.575Z,12.80
2018-03-20T16:18:51.083Z,11.40
2018-03-20T16:21:18.576Z,11.97
2018-03-20T16:23:46.028Z,11.77
2018-03-20T16:26:13.499Z,12.80
2018-03-20T16:28:41.705Z,15.30
2018-03-20T16:31:09.589Z,19.83
2018-03-20T16:33:37.131Z,14.45
2018-03-20T16:36:04.579Z,13.80
2018-03-20T16:38:33.420Z,13.77
2018-03-20T16:41:01.073Z,11.57
2018-03-20T16:43:28.602Z,14.38
2018-03-20T16:45:56.175Z,11.63
2018-03-20T16:48:24.508Z,14.07
2018-03-20T16:50:52.032Z,10.10
2018-03-20T16:55:52.625Z,9.82
2018-03-20T16:58:21.507Z,13.38
2018-03-20T17:00:49.122Z,13.65
2018-03-20T17:03:16.808Z,11.05
2018-03-20T17:05:44.268Z,15.80
2018-03-20T17:08:11.744Z,12.95
2018-03-20T17:10:39.208Z,12.48
2018-03-20T17:13:07.507Z,14.80
2018-03-20T17:15:34.991Z,15.00
2018-03-20T17:18:02.517Z,12.50
2018-03-20T17:20:30.084Z,14.75
2018-03-20T17:22:57.633Z,10.32
2018-03-20T17:25:25.835Z,15.40
2018-03-20T17:27:53.320Z,11.12
2018-03-20T17:30:20.874Z,9.40
2018-03-20T17:32:48.353Z,12.30
2018-03-20T17:35:15.871Z,13.35
2018-03-20T17:37:43.360Z,11.55
2018-03-20T17:40:12.055Z,13.13
2018-03-20T17:42:40.321Z,14.80
2018-03-20T17:45:07.824Z,12.70
2018-03-20T17:47:35.331Z,13.32
2018-03-20T17:50:03.104Z,10.05
2018-03-20T17:52:30.698Z,16.70
2018-03-20T17:54:58.223Z,15.63
2018-03-20T17:57:25.830Z,12.55
2018-03-20T17:59:53.317Z,14.40
2018-03-20T18:02:21.053Z,11.80
2018-03-20T18:04:48.602Z,13.55
2018-03-20T18:07:16.182Z,16.50
2018-03-20T18:09:43.681Z,14.43
2018-03-20T18:12:11.241Z,11.10
2018-03-20T18:14:38.828Z,13.88
2018-03-20T18:17:06.332Z,13.00
2018-03-20T18:19:33.820Z,13.15
2018-03-20T18:22:01.357Z,9.50
2018-03-20T18:24:29.813Z,16.65
2018-03-20T18:26:58.129Z,11.82
2018-03-20T18:29:25.667Z,11.70
2018-03-20T18:31:53.151Z,11.27
2018-03-20T18:34:20.656Z,18.37
2018-03-20T18:36:49.205Z,14.25
2018-03-20T18:39:16.829Z,17.08
2018-03-20T18:41:44.399Z,11.98
2018-03-20T18:44:11.946Z,20.92
2018-03-20T18:46:39.499Z,17.50
2018-03-20T18:49:07.949Z,21.25
2018-03-20T18:51:38.584Z,14.32
2018-03-20T18:54:07.058Z,12.40
2018-03-20T18:56:36.623Z,11.75
2018-03-20T18:59:04.204Z,19.77
2018-03-20T19:01:31.749Z,15.07
2018-03-20T19:03:59.284Z,13.93
2018-03-20T19:06:27.024Z,13.60
2018-03-20T19:08:54.564Z,19.95
2018-03-20T19:11:22.043Z,17.83
2018-03-20T19:13:49.659Z,28.80
2018-03-20T19:16:18.362Z,24.23
2018-03-20T19:18:46.003Z,25.77
2018-03-20T19:21:13.549Z,27.67
2018-03-20T19:23:42.202Z,24.63
2018-03-20T19:26:09.737Z,34.45
2018-03-20T19:28:37.491Z,29.30
2018-03-20T19:31:05.508Z,31.77
2018-03-20T19:33:33.034Z,29.20
2018-03-20T19:36:00.879Z,35.13
2018-03-20T19:38:28.376Z,32.15
2018-03-20T19:40:56.167Z,40.22
2018-03-20T19:43:23.692Z,44.00
2018-03-20T19:45:51.283Z,45.05
2018-03-20T19:48:18.890Z,38.78
2018-03-20T19:50:46.497Z,40.10
2018-03-20T19:53:18.271Z,43.38
2018-03-20T19:55:45.820Z,43.75
2018-03-20T19:58:13.393Z,46.50
2018-03-20T20:00:43.478Z,46.45
2018-03-20T20:03:14.788Z,44.88
2018-03-20T20:05:42.388Z,43.92
2018-03-20T20:08:09.875Z,46.83
2018-03-20T20:10:38.675Z,41.90
2018-03-20T20:13:06.224Z,43.83
2018-03-20T20:15:33.782Z,42.85
2018-03-20T20:18:01.280Z,43.13
2018-03-20T20:20:31.172Z,48.53
2018-03-20T20:22:59.101Z,43.33
2018-03-20T20:25:26.633Z,41.78
2018-03-20T20:27:54.107Z,47.47
2018-03-20T20:30:21.673Z,45.30
2018-03-20T20:32:49.217Z,46.97
2018-03-20T20:37:48.980Z,42.88
2018-03-20T20:40:16.646Z,38.60
2018-03-20T20:42:44.124Z,44.85
2018-03-20T20:45:11.650Z,41.37
2018-03-20T20:47:39.413Z,40.88
2018-03-20T20:50:07.407Z,42.70
2018-03-20T20:52:35.005Z,41.95
2018-03-20T20:55:02.518Z,38.33
2018-03-20T20:57:30.189Z,51.50
2018-03-20T20:59:57.881Z,44.22
2018-03-20T21:02:25.439Z,41.00
2018-03-20T21:04:52.997Z,45.25
2018-03-20T21:07:22.410Z,38.10
2018-03-20T21:09:49.937Z,40.22
2018-03-20T21:12:17.533Z,34.28
2018-03-20T21:14:45.124Z,46.63
2018-03-20T21:17:13.559Z,40.40
2018-03-20T21:19:41.916Z,40.30
2018-03-20T21:22:09.430Z,39.00
2018-03-20T21:24:41.360Z,44.42
2018-03-20T21:27:08.919Z,37.65
2018-03-20T21:29:39.303Z,41.45
2018-03-20T21:32:07.504Z,42.88
2018-03-20T21:34:35.102Z,38.17
2018-03-20T21:37:03.122Z,41.70
2018-03-20T21:39:30.603Z,36.05
2018-03-20T21:41:58.087Z,37.13
2018-03-20T21:44:25.589Z,33.80
2018-03-20T21:46:53.719Z,36.92
2018-03-20T21:49:21.924Z,37.97
2018-03-20T21:51:49.448Z,34.90
2018-03-20T21:54:16.918Z,39.90
2018-03-20T21:56:44.450Z,35.75
2018-03-20T21:59:12.560Z,31.25
2018-03-20T22:01:40.072Z,36.33
2018-03-20T22:04:07.950Z,36.08
2018-03-20T22:06:35.395Z,36.10
2018-03-20T22:09:03.216Z,32.85
2018-03-20T22:11:30.725Z,34.95
2018-03-20T22:13:58.253Z,32.13
2018-03-20T22:16:26.469Z,37.17
2018-03-20T22:18:54.052Z,36.92
2018-03-20T22:21:21.579Z,28.48
2018-03-20T22:23:49.077Z,32.47
2018-03-20T22:26:16.746Z,36.55
2018-03-20T22:28:44.247Z,36.13
2018-03-20T22:31:11.755Z,31.40
2018-03-20T22:33:39.257Z,30.83
2018-03-20T22:36:06.735Z,34.13
2018-03-20T22:38:34.216Z,29.30
2018-03-20T22:41:01.695Z,30.10
2018-03-20T22:43:29.191Z,28.08
2018-03-20T22:45:56.682Z,31.23
2018-03-20T22:48:24.243Z,30.55
2018-03-20T22:50:51.740Z,27.33
2018-03-20T22:53:19.227Z,32.33
2018-03-20T22:55:46.753Z,27.08
2018-03-20T22:58:14.406Z,27.60
2018-03-20T23:00:42.438Z,28.55
2018-03-20T23:03:10.070Z,26.58
2018-03-20T23:05:37.593Z,29.65
2018-03-20T23:08:05.065Z,28.77
2018-03-20T23:10:32.970Z,30.52
2018-03-20T23:13:00.489Z,34.70
2018-03-20T23:15:27.999Z,28.25
2018-03-20T23:17:55.479Z,23.50
2018-03-20T23:20:22.935Z,32.20
2018-03-20T23:22:50.450Z,30.48
2018-03-20T23:25:19.547Z,31.95
2018-03-20T23:27:47.003Z,31.48
2018-03-20T23:30:14.503Z,29.35
2018-03-20T23:32:41.992Z,25.42
2018-03-20T23:35:09.477Z,26.42
2018-03-20T23:37:37.115Z,26.87
2018-03-20T23:40:05.627Z,25.65
2018-03-20T23:42:33.133Z,22.62
2018-03-20T23:45:00.620Z,29.42
2018-03-20T23:47:28.111Z,29.65
2018-03-20T23:49:55.594Z,24.42
2018-03-20T23:52:23.144Z,28.25
2018-03-20T23:54:51.451Z,24.65
2018-03-20T23:57:18.979Z,25.17
2018-03-20T23:59:46.510Z,23.75
